1962 NOT_NAMED (1962028S19474)


IBTrACS version v04r00. Visit IBTrACS website for data access.
Please direct all questions to the IBTrACS Q and A forum

Storm track - Intensity - Wind Radii - Intensity Data - Source Data - All data

Summary Information

Storm ID 1962028S19474
Start Feb 6 01Z
End Feb 10 12Z
ATCF IDs ,SH111962
Track status Best track data.

Storm track plot

Map of storm track

Intensity plots

No Intensity information for this storm


Radial wind information

No radial wind information for this storm


Position and Intensity Table

BASIN ISO_TIME_________ NATURE LAT LON
degrees north degrees east
SI 1962-02-06 01:00:00 TS -19.21 113.94
SI 03:00:00 TS -19.25 113.82
SI 06:00:00 TS -19.30 113.60
SI 09:00:00 TS -19.31 113.36
SI 11:00:00 TS -19.30 113.19
SI 12:00:00 TS -19.30 113.10
SI 15:00:00 TS -19.31 112.85
SI 18:00:00 TS -19.30 112.60
SI 21:00:00 TS -19.26 112.34
SI 23:00:00 TS -19.23 112.18
SI 1962-02-07 00:00:00 TS -19.20 112.10
SI 01:00:00 TS -19.17 112.03
SI 03:00:00 TS -19.11 111.90
SI 06:00:00 TS -19.00 111.70
SI 08:00:00 TS -18.94 111.53
SI 09:00:00 TS -18.91 111.44
SI 11:00:00 TS -18.84 111.27
SI 12:00:00 TS -18.80 111.20
SI 15:00:00 TS -18.65 111.04
SI 18:00:00 TS -18.50 110.90
SI 21:00:00 TS -18.40 110.72
SI 23:00:00 TS -18.34 110.58
SI 1962-02-08 00:00:00 TS -18.30 110.50
SI 01:00:00 TS -18.25 110.41
SI 03:00:00 TS -18.15 110.22
SI 06:00:00 TS -18.00 109.90
SI 09:00:00 TS -17.88 109.57
SI 11:00:00 TS -17.82 109.33
SI 12:00:00 TS -17.80 109.20
SI 15:00:00 TS -17.73 108.81
SI 18:00:00 TS -17.70 108.40
SI 21:00:00 TS -17.73 108.01
SI 23:00:00 TS -17.78 107.74
SI 1962-02-09 00:00:00 TS -17.80 107.60
SI 01:00:00 TS -17.81 107.46
SI 03:00:00 TS -17.83 107.16
SI 06:00:00 TS -17.90 106.70
SI 09:00:00 TS -18.03 106.25
SI 11:00:00 TS -18.14 105.95
SI 12:00:00 TS -18.20 105.80
SI 15:00:00 TS -18.38 105.35
SI 18:00:00 TS -18.60 104.90
SI 21:00:00 TS -18.83 104.44
SI 23:00:00 TS -19.01 104.14
SI 1962-02-10 00:00:00 TS -19.10 104.00
SI 01:00:00 TS -19.19 103.86
SI 03:00:00 TS -19.39 103.58
SI 06:00:00 TS -19.70 103.20
SI 09:00:00 TS -19.92 102.86
SI 11:00:00 TS -20.14 102.68
SI 12:00:00 TS -20.30 102.60

Source Information

Agency Information
USA bsh111962.txt
TOKYO
CMA
HKO
NEWDELHI
REUNION
BOM
NADI
WELLINGTON
DS824 s_hem.dat:837:11S
TD9636
TD9635
NEUMANN
MLC

All available IBTrACS Data

SEASON BASIN SUBBASIN ISO_TIME_________ NATURE LAT LON DIST2LAND LANDFALL IFLAG USA AGENCY USA ATCF_ID USA LAT USA LON USA SSHS DS824 LAT DS824 LON DS824 STAGE STORM SPEED STORM DIR
Year degrees north degrees east km km degrees north degrees east 1 degrees north degrees east kts degrees
1962 SI WA 1962-02-06 01:00:00 TS -19.21 113.94 297 297 ______________ -1 4 253
1962 SI WA 03:00:00 TS -19.25 113.82 302 291 ______________ -1 4 255
1962 SI WA 06:00:00 TS -19.30 113.60 293 293 O________O____ jtwc_sh SH111962 -19.30 113.60 -1 -19.30 113.60 TC 4 262
1962 SI WA 09:00:00 TS -19.31 113.36 297 299 P________P____ SH111962 -19.30 113.35 -1 -19.30 113.35 TC 5 270
1962 SI WA 11:00:00 TS -19.30 113.19 302 302 P________P____ SH111962 -19.30 113.18 -1 -19.30 113.18 TC 5 272
1962 SI WA 12:00:00 TS -19.30 113.10 305 305 O________O____ jtwc_sh SH111962 -19.30 113.10 -1 -19.30 113.10 TC 5 269
1962 SI WA 15:00:00 TS -19.31 112.85 312 316 P________P____ SH111962 -19.31 112.85 -1 -19.31 112.85 TC 5 270
1962 SI WA 18:00:00 TS -19.30 112.60 325 325 O________O____ jtwc_sh SH111962 -19.30 112.60 -1 -19.30 112.60 TC 5 275
1962 SI WA 21:00:00 TS -19.26 112.34 340 340 P________P____ SH111962 -19.26 112.34 -1 -19.26 112.34 TC 5 281
1962 SI WA 23:00:00 TS -19.23 112.18 355 355 P________P____ SH111962 -19.23 112.18 -1 -19.23 112.18 TC 5 286
1962 SI WA 1962-02-07 00:00:00 TS -19.20 112.10 360 360 O________O____ jtwc_sh SH111962 -19.20 112.10 -1 -19.20 112.10 TC 4 291
1962 SI WA 01:00:00 TS -19.17 112.03 366 366 P________P____ SH111962 -19.17 112.03 -1 -19.17 112.03 TC 4 296
1962 SI WA 03:00:00 TS -19.11 111.90 381 381 P________P____ SH111962 -19.11 111.90 -1 -19.11 111.90 TC 4 299
1962 SI WA 06:00:00 TS -19.00 111.70 403 403 O________O____ jtwc_sh SH111962 -19.00 111.70 -1 -19.00 111.70 TC 5 296
1962 SI WA 08:00:00 TS -18.94 111.53 424 424 P________P____ SH111962 -18.94 111.53 -1 -18.94 111.53 TC 5 291
1962 SI WA 09:00:00 TS -18.91 111.44 431 431 P________P____ SH111962 -18.91 111.44 -1 -18.91 111.44 TC 5 293
1962 SI WA 11:00:00 TS -18.84 111.27 446 446 P________P____ SH111962 -18.84 111.27 -1 -18.84 111.27 TC 5 295
1962 SI WA 12:00:00 TS -18.80 111.20 453 453 O________O____ jtwc_sh SH111962 -18.80 111.20 -1 -18.80 111.20 TC 4 311
1962 SI WA 15:00:00 TS -18.65 111.04 483 483 P________P____ SH111962 -18.65 111.04 -1 -18.65 111.04 TC 4 317
1962 SI WA 18:00:00 TS -18.50 110.90 499 499 O________O____ jtwc_sh SH111962 -18.50 110.90 -1 -18.50 110.90 TC 4 309
1962 SI WA 21:00:00 TS -18.40 110.72 521 521 P________P____ SH111962 -18.40 110.72 -1 -18.40 110.72 TC 4 298
1962 SI WA 23:00:00 TS -18.34 110.58 536 536 P________P____ SH111962 -18.34 110.58 -1 -18.34 110.58 TC 5 295
1962 SI WA 1962-02-08 00:00:00 TS -18.30 110.50 543 543 O________O____ jtwc_sh SH111962 -18.30 110.50 -1 -18.30 110.50 TC 5 298
1962 SI WA 01:00:00 TS -18.25 110.41 550 550 P________P____ SH111962 -18.25 110.41 -1 -18.25 110.41 TC 6 300
1962 SI WA 03:00:00 TS -18.15 110.22 581 581 P________P____ SH111962 -18.15 110.22 -1 -18.15 110.22 TC 7 297
1962 SI WA 06:00:00 TS -18.00 109.90 611 611 O________O____ jtwc_sh SH111962 -18.00 109.90 -1 -18.00 109.90 TC 7 293
1962 SI WA 09:00:00 TS -17.88 109.57 641 649 P________P____ SH111962 -17.88 109.57 -1 -17.88 109.57 TC 7 288
1962 SI WA 11:00:00 TS -17.82 109.33 672 672 P________P____ SH111962 -17.82 109.33 -1 -17.82 109.33 TC 7 284
1962 SI WA 12:00:00 TS -17.80 109.20 679 679 O________O____ jtwc_sh SH111962 -17.80 109.20 -1 -17.80 109.20 TC 8 281
1962 SI WA 15:00:00 TS -17.73 108.81 718 718 P________P____ SH111962 -17.73 108.81 -1 -17.73 108.81 TC 8 277
1962 SI WA 18:00:00 TS -17.70 108.40 750 750 O________O____ jtwc_sh SH111962 -17.70 108.40 -1 -17.70 108.40 TC 8 269
1962 SI WA 21:00:00 TS -17.73 108.01 783 783 P________P____ SH111962 -17.73 108.01 -1 -17.73 108.01 TC 8 263
1962 SI WA 23:00:00 TS -17.78 107.74 802 802 P________P____ SH111962 -17.78 107.74 -1 -17.78 107.74 TC 8 260
1962 SI WA 1962-02-09 00:00:00 TS -17.80 107.60 811 811 O________O____ jtwc_sh SH111962 -17.80 107.60 -1 -17.80 107.60 TC 8 263
1962 SI WA 01:00:00 TS -17.81 107.46 819 819 P________P____ SH111962 -17.81 107.46 -1 -17.81 107.46 TC 8 265
1962 SI WA 03:00:00 TS -17.83 107.16 845 854 P________P____ SH111962 -17.83 107.16 -1 -17.83 107.16 TC 9 263
1962 SI WA 06:00:00 TS -17.90 106.70 884 884 O________O____ jtwc_sh SH111962 -17.90 106.70 -1 -17.90 106.70 TC 9 257
1962 SI WA 09:00:00 TS -18.03 106.25 915 918 P________P____ SH111962 -18.03 106.25 -1 -18.03 106.25 TC 9 251
1962 SI WA 11:00:00 TS -18.14 105.95 946 940 P________P____ SH111962 -18.14 105.95 -1 -18.14 105.95 TC 9 248
1962 SI WA 12:00:00 TS -18.20 105.80 949 949 O________O____ jtwc_sh SH111962 -18.20 105.80 -1 -18.20 105.80 TC 9 247
1962 SI WA 15:00:00 TS -18.38 105.35 983 983 P________P____ SH111962 -18.38 105.35 -1 -18.38 105.35 TC 9 245
1962 SI WA 18:00:00 TS -18.60 104.90 1009 1009 O________O____ jtwc_sh SH111962 -18.60 104.90 -1 -18.60 104.90 TC 10 242
1962 SI WA 21:00:00 TS -18.83 104.44 1046 1041 P________P____ SH111962 -18.83 104.44 -1 -18.83 104.44 TC 10 240
1962 SI WA 23:00:00 TS -19.01 104.14 1065 1061 P________P____ SH111962 -19.01 104.14 -1 -19.01 104.14 TC 10 238
1962 SI WA 1962-02-10 00:00:00 TS -19.10 104.00 1071 1071 O________O____ jtwc_sh SH111962 -19.10 104.00 -1 -19.10 104.00 TC 10 236
1962 SI WA 01:00:00 TS -19.19 103.86 1076 1076 P________P____ SH111962 -19.19 103.86 -1 -19.19 103.86 TC 10 234
1962 SI WA 03:00:00 TS -19.39 103.58 1097 1097 P________P____ SH111962 -19.39 103.58 -1 -19.39 103.58 TC 10 231
1962 SI WA 06:00:00 TS -19.70 103.20 1125 1125 O________O____ jtwc_sh SH111962 -19.70 103.20 -1 -19.70 103.20 TC 9 232
1962 SI WA 09:00:00 TS -19.92 102.86 1148 1155 P________P____ SH111962 -20.00 102.88 -1 -20.00 102.88 TC 8 228
1962 SI WA 11:00:00 TS -20.14 102.68 1162 1159 P________P____ SH111962 -20.20 102.69 -1 -20.20 102.69 TC 9 213
1962 SI WA 12:00:00 TS -20.30 102.60 1166 O________O____ jtwc_sh SH111962 -20.30 102.60 -1 -20.30 102.60 TC 10 204